Mullan Pass, ID

3:20 AM PDT on April 30, 2017 (GMT -0700)
Mullan Pass | | Change Station

Elev 6027 ft 47.45 °N, 115.68 °W | Updated 6 minutes ago

Light Snow
Light Snow Mist
31 °F
Feels Like 24 °F
N
7
Wind Variable Wind from SW

Today
High -- | Low -- °F
--% Chance of Precip.
Yesterday
High -- | Low -- °F
Precip. -- in
Pressure 30.01 in
Visibility 2.5 miles
Clouds Mostly Cloudy 600 ft
Overcast 1100 ft
Windchill 24 °F
Dew Point 29 °F
Humidity 92%
Rainfall 0.01 in
Snow Depth Not available.
5:27 AM 7:53 PM
Waxing Crescent, 21% visible
SPECI KMLP 301014Z AUTO 22006KT 2 1/2SM -SN BR BKN006 OVC011 M01/M02 A3001 RMK AO2 CIG 004V008 P0000 T10061017 TSNO
Pressure 30.01 in
Visibility 2.5 miles
Clouds Mostly Cloudy 600 ft
Overcast 1100 ft
Windchill 24 °F
Dew Point 29 °F
Humidity 92%
Rainfall 0.01 in
Snow Depth Not available.
5:27 AM 7:53 PM
Waxing Crescent, 21% visible
SPECI KMLP 301014Z AUTO 22006KT 2 1/2SM -SN BR BKN006 OVC011 M01/M02 A3001 RMK AO2 CIG 004V008 P0000 T10061017 TSNO

Get Severe Weather Alerts

Thanks for signing up!

Be on the lookout for a verification email in your inbox.

You'll start receiving the daily forecast at 8 AM.

×

10-Day Weather Forecast

Almanac

Astronomy

Apr. 30, 2017 Rise Set
Actual Time
Civil Twilight
Nautical Twilight
Astronomical Twilight
Moon
Length of Visible Light
Length of Day
Tomorrow will be .
, % of the Moon is Illuminated

Today's Extremes

State Highs State Lows

Community

WunderPhotos

WunderBlog® & News

Nearby

Air Quality

  Air Quality AQ Index Pollutant
Not available.

Snow Depth

Station Depth Elevation

Earthquake Activity

City Distance Mag. Time & Date
Minimum magnitude displayed is 2.5.

Coastal Water Temperatures

Place Temperature

Stations

Nearby Weather Stations

Station Location Temp. Windchill Dew Point Humidity Wind Precip. Elev Updated Type
                   

Watches & Warnings

There are currently no watches in effect.